sensor_id;sensor_type;location;lat;lon;timestamp;temperature;humidity
16384;DHT22;8301;51.440;6.610;2024-02-04T00:01:21;9.70;99.90
16384;DHT22;8301;51.440;6.610;2024-02-04T00:03:48;9.70;99.90
16384;DHT22;8301;51.440;6.610;2024-02-04T00:06:15;9.70;99.90
16384;DHT22;8301;51.440;6.610;2024-02-04T00:08:42;9.70;99.90
16384;DHT22;8301;51.440;6.610;2024-02-04T00:11:08;9.70;99.90
16384;DHT22;8301;51.440;6.610;2024-02-04T00:13:37;9.70;99.90
16384;DHT22;8301;51.440;6.610;2024-02-04T00:16:04;9.80;99.90
16384;DHT22;8301;51.440;6.610;2024-02-04T00:18:31;9.70;99.90
16384;DHT22;8301;51.440;6.610;2024-02-04T00:20:58;9.70;99.90
16384;DHT22;8301;51.440;6.610;2024-02-04T00:23:25;9.60;99.90
16384;DHT22;8301;51.440;6.610;2024-02-04T00:25:51;9.60;99.90
16384;DHT22;8301;51.440;6.610;2024-02-04T00:28:18;9.60;99.90
16384;DHT22;8301;51.440;6.610;2024-02-04T00:30:46;9.60;99.90
16384;DHT22;8301;51.440;6.610;2024-02-04T00:33:14;9.60;99.90
16384;DHT22;8301;51.440;6.610;2024-02-04T00:35:41;9.60;99.90
16384;DHT22;8301;51.440;6.610;2024-02-04T00:38:08;9.60;99.90
16384;DHT22;8301;51.440;6.610;2024-02-04T00:40:35;9.60;99.90
16384;DHT22;8301;51.440;6.610;2024-02-04T00:43:02;9.60;99.90
16384;DHT22;8301;51.440;6.610;2024-02-04T00:45:29;9.60;99.90
16384;DHT22;8301;51.440;6.610;2024-02-04T00:47:56;9.50;99.90
16384;DHT22;8301;51.440;6.610;2024-02-04T00:50:22;9.60;99.90
16384;DHT22;8301;51.440;6.610;2024-02-04T00:52:49;9.50;99.90
16384;DHT22;8301;51.440;6.610;2024-02-04T00:55:18;9.60;99.90
16384;DHT22;8301;51.440;6.610;2024-02-04T00:57:44;9.60;99.90
16384;DHT22;8301;51.440;6.610;2024-02-04T01:00:11;9.60;99.90
16384;DHT22;8301;51.440;6.610;2024-02-04T01:02:41;9.60;99.90
16384;DHT22;8301;51.440;6.610;2024-02-04T01:05:08;9.50;99.90
16384;DHT22;8301;51.440;6.610;2024-02-04T01:07:35;9.60;99.90
16384;DHT22;8301;51.440;6.610;2024-02-04T01:10:01;9.60;99.90
16384;DHT22;8301;51.440;6.610;2024-02-04T01:12:28;9.60;99.90
16384;DHT22;8301;51.440;6.610;2024-02-04T01:14:55;9.60;99.90
16384;DHT22;8301;51.440;6.610;2024-02-04T01:17:22;9.60;99.90
16384;DHT22;8301;51.440;6.610;2024-02-04T01:19:49;9.60;99.90
16384;DHT22;8301;51.440;6.610;2024-02-04T01:22:15;9.60;99.90
16384;DHT22;8301;51.440;6.610;2024-02-04T01:24:42;9.60;99.90
16384;DHT22;8301;51.440;6.610;2024-02-04T01:27:10;9.60;99.90
16384;DHT22;8301;51.440;6.610;2024-02-04T01:29:37;9.60;99.90
16384;DHT22;8301;51.440;6.610;2024-02-04T01:32:04;9.60;99.90
16384;DHT22;8301;51.440;6.610;2024-02-04T01:34:30;9.60;99.90
16384;DHT22;8301;51.440;6.610;2024-02-04T01:36:57;9.70;99.90
16384;DHT22;8301;51.440;6.610;2024-02-04T01:39:24;9.70;99.90
16384;DHT22;8301;51.440;6.610;2024-02-04T01:41:51;9.70;99.90
16384;DHT22;8301;51.440;6.610;2024-02-04T01:44:18;9.70;99.90
16384;DHT22;8301;51.440;6.610;2024-02-04T01:46:45;9.70;99.90
16384;DHT22;8301;51.440;6.610;2024-02-04T01:49:12;9.70;99.90
16384;DHT22;8301;51.440;6.610;2024-02-04T01:51:39;9.70;99.90
16384;DHT22;8301;51.440;6.610;2024-02-04T01:54:06;9.80;99.90
16384;DHT22;8301;51.440;6.610;2024-02-04T01:56:34;9.70;99.90
16384;DHT22;8301;51.440;6.610;2024-02-04T01:59:01;9.70;99.90
16384;DHT22;8301;51.440;6.610;2024-02-04T02:01:28;9.80;99.90
16384;DHT22;8301;51.440;6.610;2024-02-04T02:03:55;9.80;99.90
16384;DHT22;8301;51.440;6.610;2024-02-04T02:06:22;9.70;99.90
16384;DHT22;8301;51.440;6.610;2024-02-04T02:08:50;9.70;99.90
16384;DHT22;8301;51.440;6.610;2024-02-04T02:11:21;9.80;99.90
16384;DHT22;8301;51.440;6.610;2024-02-04T02:13:50;9.80;99.90
16384;DHT22;8301;51.440;6.610;2024-02-04T02:16:18;9.80;99.90
16384;DHT22;8301;51.440;6.610;2024-02-04T02:19:09;9.80;99.90
16384;DHT22;8301;51.440;6.610;2024-02-04T02:21:38;9.80;99.90
16384;DHT22;8301;51.440;6.610;2024-02-04T02:26:47;9.80;99.90
16384;DHT22;8301;51.440;6.610;2024-02-04T02:29:16;9.80;99.90
16384;DHT22;8301;51.440;6.610;2024-02-04T02:31:43;9.80;99.90
16384;DHT22;8301;51.440;6.610;2024-02-04T02:34:10;9.80;99.90
16384;DHT22;8301;51.440;6.610;2024-02-04T02:36:41;9.80;99.90
16384;DHT22;8301;51.440;6.610;2024-02-04T02:39:12;9.90;99.90
16384;DHT22;8301;51.440;6.610;2024-02-04T02:41:35;9.90;99.90
16384;DHT22;8301;51.440;6.610;2024-02-04T02:44:04;9.80;99.90
16384;DHT22;8301;51.440;6.610;2024-02-04T02:46:34;9.80;99.90
16384;DHT22;8301;51.440;6.610;2024-02-04T02:49:02;9.80;99.90
16384;DHT22;8301;51.440;6.610;2024-02-04T02:51:30;9.80;99.90
16384;DHT22;8301;51.440;6.610;2024-02-04T02:53:57;9.80;99.90
16384;DHT22;8301;51.440;6.610;2024-02-04T02:56:23;9.80;99.90
16384;DHT22;8301;51.440;6.610;2024-02-04T02:58:50;9.80;99.90
16384;DHT22;8301;51.440;6.610;2024-02-04T03:01:17;9.80;99.90
16384;DHT22;8301;51.440;6.610;2024-02-04T03:03:44;9.80;99.90
16384;DHT22;8301;51.440;6.610;2024-02-04T03:06:11;9.90;99.90
16384;DHT22;8301;51.440;6.610;2024-02-04T03:08:37;9.90;99.90
16384;DHT22;8301;51.440;6.610;2024-02-04T03:11:05;9.80;99.90
16384;DHT22;8301;51.440;6.610;2024-02-04T03:13:32;9.80;99.90
16384;DHT22;8301;51.440;6.610;2024-02-04T03:15:59;9.80;99.90
16384;DHT22;8301;51.440;6.610;2024-02-04T03:18:26;9.90;99.90
16384;DHT22;8301;51.440;6.610;2024-02-04T03:20:52;9.90;99.90
16384;DHT22;8301;51.440;6.610;2024-02-04T03:23:19;9.90;99.90
16384;DHT22;8301;51.440;6.610;2024-02-04T03:25:46;9.80;99.90
16384;DHT22;8301;51.440;6.610;2024-02-04T03:28:13;9.80;99.90
16384;DHT22;8301;51.440;6.610;2024-02-04T03:30:40;9.80;99.90
16384;DHT22;8301;51.440;6.610;2024-02-04T03:33:06;9.80;99.90
16384;DHT22;8301;51.440;6.610;2024-02-04T03:35:33;9.80;99.90
16384;DHT22;8301;51.440;6.610;2024-02-04T03:38:02;9.80;99.90
16384;DHT22;8301;51.440;6.610;2024-02-04T03:40:29;9.80;99.90
16384;DHT22;8301;51.440;6.610;2024-02-04T03:42:55;9.80;99.90
16384;DHT22;8301;51.440;6.610;2024-02-04T03:45:22;9.80;99.90
16384;DHT22;8301;51.440;6.610;2024-02-04T03:47:49;9.80;99.90
16384;DHT22;8301;51.440;6.610;2024-02-04T03:50:16;9.80;99.90
16384;DHT22;8301;51.440;6.610;2024-02-04T03:52:43;9.80;99.90
16384;DHT22;8301;51.440;6.610;2024-02-04T03:55:09;9.80;99.90
16384;DHT22;8301;51.440;6.610;2024-02-04T03:57:36;9.80;99.90
16384;DHT22;8301;51.440;6.610;2024-02-04T04:00:03;9.80;99.90
16384;DHT22;8301;51.440;6.610;2024-02-04T04:02:30;9.90;99.90
16384;DHT22;8301;51.440;6.610;2024-02-04T04:04:57;9.90;99.90
16384;DHT22;8301;51.440;6.610;2024-02-04T04:07:23;9.90;99.90
16384;DHT22;8301;51.440;6.610;2024-02-04T04:09:50;9.90;99.90
16384;DHT22;8301;51.440;6.610;2024-02-04T04:12:17;9.90;99.90
16384;DHT22;8301;51.440;6.610;2024-02-04T04:14:44;9.90;99.90
16384;DHT22;8301;51.440;6.610;2024-02-04T04:17:11;9.90;99.90
16384;DHT22;8301;51.440;6.610;2024-02-04T04:19:38;9.90;99.90
16384;DHT22;8301;51.440;6.610;2024-02-04T04:22:05;9.90;99.90
16384;DHT22;8301;51.440;6.610;2024-02-04T04:24:32;9.90;99.90
16384;DHT22;8301;51.440;6.610;2024-02-04T04:26:59;9.90;99.90
16384;DHT22;8301;51.440;6.610;2024-02-04T04:29:26;10.00;99.90
16384;DHT22;8301;51.440;6.610;2024-02-04T04:31:52;9.90;99.90
16384;DHT22;8301;51.440;6.610;2024-02-04T04:34:19;10.00;99.90
16384;DHT22;8301;51.440;6.610;2024-02-04T04:36:46;10.00;99.90
16384;DHT22;8301;51.440;6.610;2024-02-04T04:39:13;10.00;99.90
16384;DHT22;8301;51.440;6.610;2024-02-04T04:41:41;10.00;99.90
16384;DHT22;8301;51.440;6.610;2024-02-04T04:44:08;10.00;99.90
16384;DHT22;8301;51.440;6.610;2024-02-04T04:46:38;10.00;99.90
16384;DHT22;8301;51.440;6.610;2024-02-04T04:49:05;10.00;99.90
16384;DHT22;8301;51.440;6.610;2024-02-04T04:51:32;9.90;99.90
16384;DHT22;8301;51.440;6.610;2024-02-04T04:53:59;9.90;99.90
16384;DHT22;8301;51.440;6.610;2024-02-04T04:56:26;10.00;99.90
16384;DHT22;8301;51.440;6.610;2024-02-04T04:58:53;10.00;99.90
16384;DHT22;8301;51.440;6.610;2024-02-04T05:01:19;10.00;99.90
16384;DHT22;8301;51.440;6.610;2024-02-04T05:03:46;9.90;99.90
16384;DHT22;8301;51.440;6.610;2024-02-04T05:06:14;9.90;99.90
16384;DHT22;8301;51.440;6.610;2024-02-04T05:08:41;9.90;99.90
16384;DHT22;8301;51.440;6.610;2024-02-04T05:11:08;9.80;99.90
16384;DHT22;8301;51.440;6.610;2024-02-04T05:13:34;9.80;99.90
16384;DHT22;8301;51.440;6.610;2024-02-04T05:16:01;9.80;99.90
16384;DHT22;8301;51.440;6.610;2024-02-04T05:18:28;9.80;99.90
16384;DHT22;8301;51.440;6.610;2024-02-04T05:20:55;9.80;99.90
16384;DHT22;8301;51.440;6.610;2024-02-04T05:23:22;9.80;99.90
16384;DHT22;8301;51.440;6.610;2024-02-04T05:25:48;9.80;99.90
16384;DHT22;8301;51.440;6.610;2024-02-04T05:28:15;9.90;99.90
16384;DHT22;8301;51.440;6.610;2024-02-04T05:30:42;9.90;99.90
16384;DHT22;8301;51.440;6.610;2024-02-04T05:33:09;9.90;99.90
16384;DHT22;8301;51.440;6.610;2024-02-04T05:35:35;9.80;99.90
16384;DHT22;8301;51.440;6.610;2024-02-04T05:38:03;9.90;99.90
16384;DHT22;8301;51.440;6.610;2024-02-04T05:40:30;9.90;99.90
16384;DHT22;8301;51.440;6.610;2024-02-04T05:42:57;9.90;99.90
16384;DHT22;8301;51.440;6.610;2024-02-04T05:45:24;9.90;99.90
16384;DHT22;8301;51.440;6.610;2024-02-04T05:47:50;9.90;99.90
16384;DHT22;8301;51.440;6.610;2024-02-04T05:50:17;9.90;99.90
16384;DHT22;8301;51.440;6.610;2024-02-04T05:52:44;9.90;99.90
16384;DHT22;8301;51.440;6.610;2024-02-04T05:55:11;9.90;99.90
16384;DHT22;8301;51.440;6.610;2024-02-04T05:57:38;9.90;99.90
16384;DHT22;8301;51.440;6.610;2024-02-04T06:00:05;9.90;99.90
16384;DHT22;8301;51.440;6.610;2024-02-04T06:02:32;9.90;99.90
16384;DHT22;8301;51.440;6.610;2024-02-04T06:04:58;10.00;99.90
16384;DHT22;8301;51.440;6.610;2024-02-04T06:07:25;10.00;99.90
16384;DHT22;8301;51.440;6.610;2024-02-04T06:09:53;10.00;99.90
16384;DHT22;8301;51.440;6.610;2024-02-04T06:12:22;9.90;99.90
16384;DHT22;8301;51.440;6.610;2024-02-04T06:14:48;9.90;99.90
16384;DHT22;8301;51.440;6.610;2024-02-04T06:17:15;9.90;99.90
16384;DHT22;8301;51.440;6.610;2024-02-04T06:19:42;9.90;99.90
16384;DHT22;8301;51.440;6.610;2024-02-04T06:22:09;9.90;99.90
16384;DHT22;8301;51.440;6.610;2024-02-04T06:24:36;9.90;99.90
16384;DHT22;8301;51.440;6.610;2024-02-04T06:27:04;9.90;99.90
16384;DHT22;8301;51.440;6.610;2024-02-04T06:29:31;9.90;99.90
16384;DHT22;8301;51.440;6.610;2024-02-04T06:31:58;9.90;99.90
16384;DHT22;8301;51.440;6.610;2024-02-04T06:34:24;9.90;99.90
16384;DHT22;8301;51.440;6.610;2024-02-04T06:36:51;9.90;99.90
16384;DHT22;8301;51.440;6.610;2024-02-04T06:39:18;9.90;99.90
16384;DHT22;8301;51.440;6.610;2024-02-04T06:41:45;9.90;99.90
16384;DHT22;8301;51.440;6.610;2024-02-04T06:44:12;9.90;99.90
16384;DHT22;8301;51.440;6.610;2024-02-04T06:46:38;9.90;99.90
16384;DHT22;8301;51.440;6.610;2024-02-04T06:49:05;9.80;99.90
16384;DHT22;8301;51.440;6.610;2024-02-04T06:51:32;9.80;99.90
16384;DHT22;8301;51.440;6.610;2024-02-04T06:53:59;9.80;99.90
16384;DHT22;8301;51.440;6.610;2024-02-04T06:56:27;9.80;99.90
16384;DHT22;8301;51.440;6.610;2024-02-04T06:58:53;9.80;99.90
16384;DHT22;8301;51.440;6.610;2024-02-04T07:01:20;9.80;99.90
16384;DHT22;8301;51.440;6.610;2024-02-04T07:03:47;9.80;99.90
16384;DHT22;8301;51.440;6.610;2024-02-04T07:06:15;9.80;99.90
16384;DHT22;8301;51.440;6.610;2024-02-04T07:08:42;9.80;99.90
16384;DHT22;8301;51.440;6.610;2024-02-04T07:11:09;9.80;99.90
16384;DHT22;8301;51.440;6.610;2024-02-04T07:13:36;9.80;99.90
16384;DHT22;8301;51.440;6.610;2024-02-04T07:16:03;9.80;99.90
16384;DHT22;8301;51.440;6.610;2024-02-04T07:18:29;9.80;99.90
16384;DHT22;8301;51.440;6.610;2024-02-04T07:20:57;9.80;99.90
16384;DHT22;8301;51.440;6.610;2024-02-04T07:23:25;9.80;99.90
16384;DHT22;8301;51.440;6.610;2024-02-04T07:25:53;9.80;99.90
16384;DHT22;8301;51.440;6.610;2024-02-04T07:28:19;9.90;99.90
16384;DHT22;8301;51.440;6.610;2024-02-04T07:30:46;9.90;99.90
16384;DHT22;8301;51.440;6.610;2024-02-04T07:33:13;9.90;99.90
16384;DHT22;8301;51.440;6.610;2024-02-04T07:35:40;9.90;99.90
16384;DHT22;8301;51.440;6.610;2024-02-04T07:38:07;9.90;99.90
16384;DHT22;8301;51.440;6.610;2024-02-04T07:40:38;9.90;99.90
16384;DHT22;8301;51.440;6.610;2024-02-04T07:43:05;9.90;99.90
16384;DHT22;8301;51.440;6.610;2024-02-04T07:45:32;9.80;99.90
16384;DHT22;8301;51.440;6.610;2024-02-04T07:47:59;9.80;99.90
16384;DHT22;8301;51.440;6.610;2024-02-04T07:50:25;9.80;99.90
16384;DHT22;8301;51.440;6.610;2024-02-04T07:52:52;9.80;99.90
16384;DHT22;8301;51.440;6.610;2024-02-04T07:55:21;9.80;99.90
16384;DHT22;8301;51.440;6.610;2024-02-04T07:57:54;9.80;99.90
16384;DHT22;8301;51.440;6.610;2024-02-04T08:00:21;9.80;99.90
16384;DHT22;8301;51.440;6.610;2024-02-04T08:02:48;9.80;99.90
16384;DHT22;8301;51.440;6.610;2024-02-04T08:05:17;9.80;99.90
16384;DHT22;8301;51.440;6.610;2024-02-04T08:07:44;9.80;99.90
16384;DHT22;8301;51.440;6.610;2024-02-04T08:10:10;9.80;99.90
16384;DHT22;8301;51.440;6.610;2024-02-04T08:12:37;9.80;99.90
16384;DHT22;8301;51.440;6.610;2024-02-04T08:15:04;9.80;99.90
16384;DHT22;8301;51.440;6.610;2024-02-04T08:17:31;9.80;99.90
16384;DHT22;8301;51.440;6.610;2024-02-04T08:19:59;9.80;99.90
16384;DHT22;8301;51.440;6.610;2024-02-04T08:22:26;9.80;99.90
16384;DHT22;8301;51.440;6.610;2024-02-04T08:24:53;9.80;99.90
16384;DHT22;8301;51.440;6.610;2024-02-04T08:27:19;9.80;99.90
16384;DHT22;8301;51.440;6.610;2024-02-04T08:29:46;9.80;99.90
16384;DHT22;8301;51.440;6.610;2024-02-04T08:32:13;9.80;99.90
16384;DHT22;8301;51.440;6.610;2024-02-04T08:34:40;9.80;99.90
16384;DHT22;8301;51.440;6.610;2024-02-04T08:37:07;9.80;99.90
16384;DHT22;8301;51.440;6.610;2024-02-04T08:39:33;9.80;99.90
16384;DHT22;8301;51.440;6.610;2024-02-04T08:42:00;9.80;99.90
16384;DHT22;8301;51.440;6.610;2024-02-04T08:44:29;9.80;99.90
16384;DHT22;8301;51.440;6.610;2024-02-04T08:46:56;9.80;99.90
16384;DHT22;8301;51.440;6.610;2024-02-04T08:49:23;9.80;99.90
16384;DHT22;8301;51.440;6.610;2024-02-04T08:51:49;9.80;99.90
16384;DHT22;8301;51.440;6.610;2024-02-04T08:54:16;9.90;99.90
16384;DHT22;8301;51.440;6.610;2024-02-04T08:56:43;9.90;99.90
16384;DHT22;8301;51.440;6.610;2024-02-04T08:59:11;9.90;99.90
16384;DHT22;8301;51.440;6.610;2024-02-04T09:01:38;9.90;99.90
16384;DHT22;8301;51.440;6.610;2024-02-04T09:04:05;9.90;99.90
16384;DHT22;8301;51.440;6.610;2024-02-04T09:06:32;10.00;99.90
16384;DHT22;8301;51.440;6.610;2024-02-04T09:08:59;10.00;99.90
16384;DHT22;8301;51.440;6.610;2024-02-04T09:11:25;10.00;99.90
16384;DHT22;8301;51.440;6.610;2024-02-04T09:13:52;10.00;99.90
16384;DHT22;8301;51.440;6.610;2024-02-04T09:16:19;10.10;99.90
16384;DHT22;8301;51.440;6.610;2024-02-04T09:18:46;10.10;99.90
16384;DHT22;8301;51.440;6.610;2024-02-04T09:21:13;10.10;99.90
16384;DHT22;8301;51.440;6.610;2024-02-04T09:23:41;10.10;99.90
16384;DHT22;8301;51.440;6.610;2024-02-04T09:26:07;10.10;99.90
16384;DHT22;8301;51.440;6.610;2024-02-04T09:28:35;10.10;99.90
16384;DHT22;8301;51.440;6.610;2024-02-04T09:31:03;10.10;99.90
16384;DHT22;8301;51.440;6.610;2024-02-04T09:33:32;10.20;99.90
16384;DHT22;8301;51.440;6.610;2024-02-04T09:35:59;10.10;99.90
16384;DHT22;8301;51.440;6.610;2024-02-04T09:38:25;10.20;99.90
16384;DHT22;8301;51.440;6.610;2024-02-04T09:40:52;10.20;99.90
16384;DHT22;8301;51.440;6.610;2024-02-04T09:43:19;10.10;99.90
16384;DHT22;8301;51.440;6.610;2024-02-04T09:45:46;10.10;99.90
16384;DHT22;8301;51.440;6.610;2024-02-04T09:48:17;10.10;99.90
16384;DHT22;8301;51.440;6.610;2024-02-04T09:50:46;10.10;99.90
16384;DHT22;8301;51.440;6.610;2024-02-04T09:53:14;10.10;99.90
16384;DHT22;8301;51.440;6.610;2024-02-04T09:55:41;10.10;99.90
16384;DHT22;8301;51.440;6.610;2024-02-04T09:58:09;10.20;99.90
16384;DHT22;8301;51.440;6.610;2024-02-04T10:00:35;10.20;99.90
16384;DHT22;8301;51.440;6.610;2024-02-04T10:03:04;10.20;99.90
16384;DHT22;8301;51.440;6.610;2024-02-04T10:05:30;10.20;99.90
16384;DHT22;8301;51.440;6.610;2024-02-04T10:07:57;10.20;99.90
16384;DHT22;8301;51.440;6.610;2024-02-04T10:10:24;10.30;99.90
16384;DHT22;8301;51.440;6.610;2024-02-04T10:12:53;10.30;99.90
16384;DHT22;8301;51.440;6.610;2024-02-04T10:15:20;10.40;99.90
16384;DHT22;8301;51.440;6.610;2024-02-04T10:17:47;10.40;99.90
16384;DHT22;8301;51.440;6.610;2024-02-04T10:20:14;10.40;99.90
16384;DHT22;8301;51.440;6.610;2024-02-04T10:22:41;10.40;99.90
16384;DHT22;8301;51.440;6.610;2024-02-04T10:25:08;10.40;99.90
16384;DHT22;8301;51.440;6.610;2024-02-04T10:27:35;10.50;99.90
16384;DHT22;8301;51.440;6.610;2024-02-04T10:30:02;10.50;99.90
16384;DHT22;8301;51.440;6.610;2024-02-04T10:32:28;10.60;99.90
16384;DHT22;8301;51.440;6.610;2024-02-04T10:34:57;10.60;99.90
16384;DHT22;8301;51.440;6.610;2024-02-04T10:37:24;10.70;99.90
16384;DHT22;8301;51.440;6.610;2024-02-04T10:39:50;10.70;99.90
16384;DHT22;8301;51.440;6.610;2024-02-04T10:42:17;10.70;99.90
16384;DHT22;8301;51.440;6.610;2024-02-04T10:44:46;10.60;99.90
16384;DHT22;8301;51.440;6.610;2024-02-04T10:47:15;10.60;99.90
16384;DHT22;8301;51.440;6.610;2024-02-04T10:49:45;10.50;99.90
16384;DHT22;8301;51.440;6.610;2024-02-04T10:52:12;10.40;99.90
16384;DHT22;8301;51.440;6.610;2024-02-04T10:54:40;10.30;99.90
16384;DHT22;8301;51.440;6.610;2024-02-04T10:57:10;10.30;99.90
16384;DHT22;8301;51.440;6.610;2024-02-04T10:59:37;10.30;99.90
16384;DHT22;8301;51.440;6.610;2024-02-04T11:02:05;10.30;99.90
16384;DHT22;8301;51.440;6.610;2024-02-04T11:04:32;10.20;99.90
16384;DHT22;8301;51.440;6.610;2024-02-04T11:07:00;10.20;99.90
16384;DHT22;8301;51.440;6.610;2024-02-04T11:09:27;10.20;99.90
16384;DHT22;8301;51.440;6.610;2024-02-04T11:11:59;10.20;99.90
16384;DHT22;8301;51.440;6.610;2024-02-04T11:14:24;10.20;99.90
16384;DHT22;8301;51.440;6.610;2024-02-04T11:16:59;10.20;99.90
16384;DHT22;8301;51.440;6.610;2024-02-04T11:19:27;10.20;99.90
16384;DHT22;8301;51.440;6.610;2024-02-04T11:24:45;10.20;99.90
16384;DHT22;8301;51.440;6.610;2024-02-04T11:27:09;10.20;99.90
16384;DHT22;8301;51.440;6.610;2024-02-04T11:29:36;10.20;99.90
16384;DHT22;8301;51.440;6.610;2024-02-04T11:32:03;10.20;99.90
16384;DHT22;8301;51.440;6.610;2024-02-04T11:34:30;10.30;99.90
16384;DHT22;8301;51.440;6.610;2024-02-04T11:36:57;10.30;99.90
16384;DHT22;8301;51.440;6.610;2024-02-04T11:39:24;10.40;99.90
16384;DHT22;8301;51.440;6.610;2024-02-04T11:41:51;10.30;99.90
16384;DHT22;8301;51.440;6.610;2024-02-04T11:44:21;10.40;99.90
16384;DHT22;8301;51.440;6.610;2024-02-04T11:46:49;10.40;99.90
16384;DHT22;8301;51.440;6.610;2024-02-04T11:49:19;10.40;99.90
16384;DHT22;8301;51.440;6.610;2024-02-04T11:51:51;10.50;99.90
16384;DHT22;8301;51.440;6.610;2024-02-04T11:54:16;10.50;99.90
16384;DHT22;8301;51.440;6.610;2024-02-04T11:56:45;10.50;99.90
16384;DHT22;8301;51.440;6.610;2024-02-04T11:59:13;10.60;99.90
16384;DHT22;8301;51.440;6.610;2024-02-04T12:01:41;10.60;99.90
16384;DHT22;8301;51.440;6.610;2024-02-04T12:04:12;10.60;99.90
16384;DHT22;8301;51.440;6.610;2024-02-04T12:06:43;10.70;99.90
16384;DHT22;8301;51.440;6.610;2024-02-04T12:09:10;10.70;99.90
16384;DHT22;8301;51.440;6.610;2024-02-04T12:11:37;10.70;99.90
16384;DHT22;8301;51.440;6.610;2024-02-04T12:14:07;10.70;99.90
16384;DHT22;8301;51.440;6.610;2024-02-04T12:16:34;10.70;99.90
16384;DHT22;8301;51.440;6.610;2024-02-04T12:19:05;10.70;99.90
16384;DHT22;8301;51.440;6.610;2024-02-04T12:21:32;10.70;99.90
16384;DHT22;8301;51.440;6.610;2024-02-04T12:23:59;10.70;99.90
16384;DHT22;8301;51.440;6.610;2024-02-04T12:26:26;10.70;99.90
16384;DHT22;8301;51.440;6.610;2024-02-04T12:28:53;10.70;99.90
16384;DHT22;8301;51.440;6.610;2024-02-04T12:31:22;10.70;99.90
16384;DHT22;8301;51.440;6.610;2024-02-04T12:33:52;10.70;99.90
16384;DHT22;8301;51.440;6.610;2024-02-04T12:36:20;10.70;99.90
16384;DHT22;8301;51.440;6.610;2024-02-04T12:38:57;10.70;99.90
16384;DHT22;8301;51.440;6.610;2024-02-04T12:41:25;10.70;99.90
16384;DHT22;8301;51.440;6.610;2024-02-04T12:43:55;10.70;99.90
16384;DHT22;8301;51.440;6.610;2024-02-04T12:46:22;10.70;99.90
16384;DHT22;8301;51.440;6.610;2024-02-04T12:51:29;10.70;99.90
16384;DHT22;8301;51.440;6.610;2024-02-04T12:56:54;10.70;99.90
16384;DHT22;8301;51.440;6.610;2024-02-04T12:59:24;10.80;99.90
16384;DHT22;8301;51.440;6.610;2024-02-04T13:01:56;10.80;99.90
16384;DHT22;8301;51.440;6.610;2024-02-04T13:04:20;10.70;99.90
16384;DHT22;8301;51.440;6.610;2024-02-04T13:06:47;10.70;99.90
16384;DHT22;8301;51.440;6.610;2024-02-04T13:09:19;10.70;99.90
16384;DHT22;8301;51.440;6.610;2024-02-04T13:11:43;10.70;99.90
16384;DHT22;8301;51.440;6.610;2024-02-04T13:14:09;10.70;99.90
16384;DHT22;8301;51.440;6.610;2024-02-04T13:16:41;10.70;99.90
16384;DHT22;8301;51.440;6.610;2024-02-04T13:19:08;10.70;99.90
16384;DHT22;8301;51.440;6.610;2024-02-04T13:21:36;10.70;99.90
16384;DHT22;8301;51.440;6.610;2024-02-04T13:24:03;10.70;99.90
16384;DHT22;8301;51.440;6.610;2024-02-04T13:26:30;10.70;99.90
16384;DHT22;8301;51.440;6.610;2024-02-04T13:28:56;10.70;99.90
16384;DHT22;8301;51.440;6.610;2024-02-04T13:31:23;10.70;99.90
16384;DHT22;8301;51.440;6.610;2024-02-04T13:33:50;10.70;99.90
16384;DHT22;8301;51.440;6.610;2024-02-04T13:36:17;10.70;99.90
16384;DHT22;8301;51.440;6.610;2024-02-04T13:38:44;10.60;99.90
16384;DHT22;8301;51.440;6.610;2024-02-04T13:41:10;10.60;99.90
16384;DHT22;8301;51.440;6.610;2024-02-04T13:43:37;10.60;99.90
16384;DHT22;8301;51.440;6.610;2024-02-04T13:46:05;10.60;99.90
16384;DHT22;8301;51.440;6.610;2024-02-04T13:48:31;10.50;99.90
16384;DHT22;8301;51.440;6.610;2024-02-04T13:50:58;10.50;99.90
16384;DHT22;8301;51.440;6.610;2024-02-04T13:53:25;10.50;99.90
16384;DHT22;8301;51.440;6.610;2024-02-04T13:55:52;10.50;99.90
16384;DHT22;8301;51.440;6.610;2024-02-04T13:58:19;10.50;99.90
16384;DHT22;8301;51.440;6.610;2024-02-04T14:00:48;10.50;99.90
16384;DHT22;8301;51.440;6.610;2024-02-04T14:03:15;10.50;99.90
16384;DHT22;8301;51.440;6.610;2024-02-04T14:05:41;10.50;99.90
16384;DHT22;8301;51.440;6.610;2024-02-04T14:08:08;10.50;99.90
16384;DHT22;8301;51.440;6.610;2024-02-04T14:10:37;10.40;99.90
16384;DHT22;8301;51.440;6.610;2024-02-04T14:13:04;10.40;99.90
16384;DHT22;8301;51.440;6.610;2024-02-04T14:15:37;10.50;99.90
16384;DHT22;8301;51.440;6.610;2024-02-04T14:18:04;10.50;99.90
16384;DHT22;8301;51.440;6.610;2024-02-04T14:20:31;10.50;99.90
16384;DHT22;8301;51.440;6.610;2024-02-04T14:22:58;10.50;99.90
16384;DHT22;8301;51.440;6.610;2024-02-04T14:25:26;10.50;99.90
16384;DHT22;8301;51.440;6.610;2024-02-04T14:27:53;10.50;99.90
16384;DHT22;8301;51.440;6.610;2024-02-04T14:30:22;10.50;99.90
16384;DHT22;8301;51.440;6.610;2024-02-04T14:32:48;10.50;99.90
16384;DHT22;8301;51.440;6.610;2024-02-04T14:35:15;10.50;99.90
16384;DHT22;8301;51.440;6.610;2024-02-04T14:37:43;10.50;99.90
16384;DHT22;8301;51.440;6.610;2024-02-04T14:40:10;10.60;99.90
16384;DHT22;8301;51.440;6.610;2024-02-04T14:42:37;10.60;99.90
16384;DHT22;8301;51.440;6.610;2024-02-04T14:45:04;10.70;99.90
16384;DHT22;8301;51.440;6.610;2024-02-04T14:47:31;10.60;99.90
16384;DHT22;8301;51.440;6.610;2024-02-04T14:49:58;10.70;99.90
16384;DHT22;8301;51.440;6.610;2024-02-04T14:52:25;10.70;99.90
16384;DHT22;8301;51.440;6.610;2024-02-04T14:54:52;10.70;99.90
16384;DHT22;8301;51.440;6.610;2024-02-04T14:57:19;10.70;99.90
16384;DHT22;8301;51.440;6.610;2024-02-04T14:59:45;10.70;99.90
16384;DHT22;8301;51.440;6.610;2024-02-04T15:02:14;10.70;99.90
16384;DHT22;8301;51.440;6.610;2024-02-04T15:04:41;10.70;99.90
16384;DHT22;8301;51.440;6.610;2024-02-04T15:07:08;10.80;99.90
16384;DHT22;8301;51.440;6.610;2024-02-04T15:09:35;10.80;99.90
16384;DHT22;8301;51.440;6.610;2024-02-04T15:12:02;10.80;99.90
16384;DHT22;8301;51.440;6.610;2024-02-04T15:14:29;10.80;99.90
16384;DHT22;8301;51.440;6.610;2024-02-04T15:16:56;10.80;99.90
16384;DHT22;8301;51.440;6.610;2024-02-04T15:19:28;10.80;99.90
16384;DHT22;8301;51.440;6.610;2024-02-04T15:21:53;10.80;99.90
16384;DHT22;8301;51.440;6.610;2024-02-04T15:24:20;10.80;99.90
16384;DHT22;8301;51.440;6.610;2024-02-04T15:26:53;10.80;99.90
16384;DHT22;8301;51.440;6.610;2024-02-04T15:29:20;10.80;99.90
16384;DHT22;8301;51.440;6.610;2024-02-04T15:31:48;10.80;99.90
16384;DHT22;8301;51.440;6.610;2024-02-04T15:34:16;10.80;99.90
16384;DHT22;8301;51.440;6.610;2024-02-04T15:36:43;10.70;99.90
16384;DHT22;8301;51.440;6.610;2024-02-04T15:39:10;10.70;99.90
16384;DHT22;8301;51.440;6.610;2024-02-04T15:41:37;10.70;99.90
16384;DHT22;8301;51.440;6.610;2024-02-04T15:44:05;10.70;99.90
16384;DHT22;8301;51.440;6.610;2024-02-04T15:46:35;10.70;99.90
16384;DHT22;8301;51.440;6.610;2024-02-04T15:49:03;10.70;99.90
16384;DHT22;8301;51.440;6.610;2024-02-04T15:51:34;10.70;99.90
16384;DHT22;8301;51.440;6.610;2024-02-04T15:54:01;10.70;99.90
16384;DHT22;8301;51.440;6.610;2024-02-04T15:56:29;10.70;99.90
16384;DHT22;8301;51.440;6.610;2024-02-04T15:59:00;10.60;99.90
16384;DHT22;8301;51.440;6.610;2024-02-04T16:01:25;10.60;99.90
16384;DHT22;8301;51.440;6.610;2024-02-04T16:03:52;10.60;99.90
16384;DHT22;8301;51.440;6.610;2024-02-04T16:06:20;10.60;99.90